Lakeland Linder Regional Airport
KLAL : now visible

Airfield :











YOU CAN JOIN US ON...

 
LOGIN :

Register | Disclaimer

   EN    FR    IT 

 









Legend :    VFR   Marginal VFR   IFR   Intensive IFR   Very Intensive IFR
Visi :
Ceiling :
>= 8 km
>= 3000ft
5 to 8 km
1000 to 3000 ft
1500m to 5 km
500 to 1000 ft
800 to 1500m
200 to 500 ft
< 800m
< 200 ft
Symbols :   Thunderstorms  Fog  Heavy snow  Heavy precipitations  Wind > 20 kt






- Airport Elevation : 142 ft


KLAL - Lakeland Linder Regional

CURRENT METAR :
  • 190150Z 00000KT 10SM SKC 15/12 A2987

EXPIRED METARs :
  • 190050Z 33003KT 10SM SKC 16/13 A2987
  • 182345Z 00000KT 10SM SKC 17/13 A2986

TAF KLAL
Valid from the 19 at 00:00 until the 20 at 00:00 UTC


182320Z 1900/1924 32006KT P6SM SKC
FM190600 00000KT P6SM BKN060
FM191500 30010KT P6SM FEW040 AMD NOT SKED 1902/1911



MET'MAP, your aeronautical weather chart ! - Copyright ORBIFLY December 2007 - Disclaimer

ORBIFLY MET'MAP TEAM :

Programming & Development : Alexandra Zaïnal
Concept & Development : Baudouin d'Aumeries
Co-Development & Prog : Marc-Olivier Méhu
Technical & hardware support : Manuel Goepfert

Contact : metmap@orbifly.com




SOURCES & CREDITS :

   NOAA       Earth
Advisory